Time;durP1;ratioP1;P1;durP2;ratioP2;P2;SDS_P1;SDS_P2;PMS_P1;PMS_P2;Temp;Humidity;BMP_temperature;BMP_pressure;BME280_temperature;BME280_humidity;BME280_pressure;Samples;Min_cycle;Max_cycle;Signal;HPM_P1;HPM_P2
2023/04/01 00:01:32;;;;;;;42.43;27.03;;;;;;;;;;10617700;27;20497;-81
2023/04/01 00:06:35;;;;;;;45.53;27.42;;;;;;;;;;10610929;27;20454;-81
2023/04/01 00:11:37;;;;;;;44.25;27.15;;;;;;;;;;10615956;27;20417;-82
2023/04/01 00:16:39;;;;;;;45.67;28.42;;;;;;;;;;10620645;27;20403;-82
2023/04/01 00:21:42;;;;;;;45.05;27.65;;;;;;;;;;10620070;27;20435;-82
2023/04/01 00:26:44;;;;;;;43.90;26.58;;;;;;;;;;10625958;22;20410;-90
2023/04/01 00:31:46;;;;;;;42.95;25.63;;;;;;;;;;10588942;28;20450;-91
2023/04/01 00:36:50;;;;;;;43.10;26.38;;;;;;;;;;10587703;28;20429;-91
2023/04/01 00:41:52;;;;;;;41.63;26.52;;;;;;;;;;10586769;28;20407;-92
2023/04/01 00:46:53;;;;;;;45.57;27.87;;;;;;;;;;10582072;28;20518;-92
2023/04/01 00:51:59;;;;;;;48.15;28.48;;;;;;;;;;10584780;28;20509;-91
2023/04/01 00:57:05;;;;;;;44.03;27.48;;;;;;;;;;10588580;28;20467;-91
2023/04/01 01:02:10;;;;;;;43.07;27.37;;;;;;;;;;10589043;28;20497;-91
2023/04/01 01:07:26;;;;;;;49.83;29.85;;;;;;;;;;10583317;28;20406;-91
2023/04/01 01:12:35;;;;;;;44.45;27.13;;;;;;;;;;10587737;28;20832;-90
2023/04/01 01:17:49;;;;;;;41.35;26.98;;;;;;;;;;10584624;28;20391;-91
2023/04/01 01:23:07;;;;;;;47.20;27.43;;;;;;;;;;10582234;28;20451;-91
2023/04/01 01:28:27;;;;;;;43.38;27.70;;;;;;;;;;10611198;27;20479;-91
2023/04/01 01:34:02;;;;;;;45.80;27.93;;;;;;;;;;10628942;27;20974;-89
2023/04/01 01:39:08;;;;;;;46.63;28.48;;;;;;;;;;10618143;27;20465;-91
2023/04/01 01:44:12;;;;;;;43.10;26.40;;;;;;;;;;10627171;27;20397;-90
2023/04/01 01:49:16;;;;;;;43.87;25.90;;;;;;;;;;10622215;27;20500;-92
2023/04/01 01:54:19;;;;;;;42.90;26.15;;;;;;;;;;10628458;27;20395;-91
2023/04/01 01:59:24;;;;;;;41.75;25.58;;;;;;;;;;10628175;27;20389;-92
2023/04/01 02:04:26;;;;;;;43.40;26.03;;;;;;;;;;10621846;27;20401;-91
2023/04/01 02:09:30;;;;;;;40.35;25.48;;;;;;;;;;10625589;27;20417;-91
2023/04/01 02:14:40;;;;;;;37.55;24.85;;;;;;;;;;10627775;27;20807;-91
2023/04/01 02:19:49;;;;;;;34.92;23.70;;;;;;;;;;10622528;27;20430;-91
2023/04/01 02:24:58;;;;;;;35.97;22.00;;;;;;;;;;10628016;27;20421;-91
2023/04/01 02:30:00;;;;;;;33.20;21.33;;;;;;;;;;10626468;27;20431;-90
2023/04/01 02:35:05;;;;;;;29.27;19.48;;;;;;;;;;10623967;27;20488;-91
2023/04/01 02:40:12;;;;;;;28.65;19.52;;;;;;;;;;10626894;27;20428;-91
2023/04/01 02:45:15;;;;;;;27.75;18.95;;;;;;;;;;10625403;27;20452;-90
2023/04/01 02:50:17;;;;;;;26.25;17.63;;;;;;;;;;10624729;27;20918;-91
2023/04/01 02:55:20;;;;;;;23.90;15.63;;;;;;;;;;10625189;27;20492;-92
2023/04/01 03:00:22;;;;;;;23.55;15.25;;;;;;;;;;10626186;27;20415;-92
2023/04/01 03:05:24;;;;;;;22.95;14.77;;;;;;;;;;10622149;27;20908;-91
2023/04/01 03:10:28;;;;;;;21.30;14.68;;;;;;;;;;10626034;28;20420;-91
2023/04/01 03:15:30;;;;;;;20.00;14.48;;;;;;;;;;10626118;28;20401;-91
2023/04/01 03:20:31;;;;;;;22.43;14.53;;;;;;;;;;10618628;28;20393;-92
2023/04/01 03:25:35;;;;;;;21.67;14.82;;;;;;;;;;10625700;28;20405;-90
2023/04/01 03:30:36;;;;;;;24.27;14.18;;;;;;;;;;10622154;28;20454;-92
2023/04/01 03:35:38;;;;;;;22.33;13.95;;;;;;;;;;10621803;28;20407;-91
2023/04/01 03:40:45;;;;;;;20.52;13.40;;;;;;;;;;10625592;28;20916;-91
2023/04/01 03:45:47;;;;;;;22.23;13.90;;;;;;;;;;10621939;28;20868;-92
2023/04/01 03:50:49;;;;;;;22.23;14.63;;;;;;;;;;10626166;28;20512;-91
2023/04/01 03:55:52;;;;;;;22.70;14.03;;;;;;;;;;10625092;28;20823;-91
2023/04/01 04:00:54;;;;;;;23.03;14.53;;;;;;;;;;10626198;28;20861;-91
2023/04/01 04:05:56;;;;;;;23.93;14.67;;;;;;;;;;10624049;28;20397;-91
2023/04/01 04:11:00;;;;;;;22.77;14.90;;;;;;;;;;10625838;27;20429;-91
2023/04/01 04:16:02;;;;;;;25.13;15.55;;;;;;;;;;10627246;27;20477;-91
2023/04/01 04:21:04;;;;;;;23.40;14.75;;;;;;;;;;10615365;27;20509;-90
2023/04/01 04:26:09;;;;;;;24.40;14.57;;;;;;;;;;10633386;27;20412;-91
2023/04/01 04:31:11;;;;;;;23.10;14.40;;;;;;;;;;10632242;27;20531;-91
2023/04/01 04:36:14;;;;;;;22.10;13.90;;;;;;;;;;10629321;27;20465;-92
2023/04/01 04:41:18;;;;;;;22.48;12.95;;;;;;;;;;10632738;27;20441;-91
2023/04/01 04:46:21;;;;;;;21.83;13.93;;;;;;;;;;10632472;27;20397;-91
2023/04/01 04:51:23;;;;;;;22.73;13.67;;;;;;;;;;10621733;27;20416;-90
2023/04/01 04:56:26;;;;;;;23.17;13.97;;;;;;;;;;10630523;27;20462;-90
2023/04/01 05:01:29;;;;;;;24.42;14.20;;;;;;;;;;10629503;27;20409;-91
2023/04/01 05:06:31;;;;;;;21.25;12.90;;;;;;;;;;10613191;27;20456;-91
2023/04/01 05:11:34;;;;;;;19.60;12.98;;;;;;;;;;10621007;27;20411;-91
2023/04/01 05:16:36;;;;;;;23.70;13.57;;;;;;;;;;10615539;27;20489;-91
2023/04/01 05:21:38;;;;;;;20.42;12.88;;;;;;;;;;10609939;27;20406;-91
2023/04/01 05:26:41;;;;;;;20.57;13.03;;;;;;;;;;10607033;27;20434;-89
2023/04/01 05:31:43;;;;;;;21.30;12.83;;;;;;;;;;10611579;27;20458;-90
2023/04/01 05:36:46;;;;;;;19.15;13.00;;;;;;;;;;10619051;27;20446;-91
2023/04/01 05:41:49;;;;;;;22.85;12.70;;;;;;;;;;10619114;27;20445;-90
2023/04/01 05:46:51;;;;;;;21.13;13.02;;;;;;;;;;10625651;27;20837;-91
2023/04/01 05:51:53;;;;;;;21.00;14.13;;;;;;;;;;10624778;27;20417;-91
2023/04/01 05:56:56;;;;;;;20.63;12.97;;;;;;;;;;10628948;27;20479;-90
2023/04/01 06:01:58;;;;;;;22.73;13.97;;;;;;;;;;10615535;27;20840;-90
2023/04/01 06:07:00;;;;;;;23.98;14.70;;;;;;;;;;10622649;27;20479;-91
2023/04/01 06:12:32;;;;;;;22.77;13.88;;;;;;;;;;10622154;27;20822;-90
2023/04/01 06:17:47;;;;;;;24.13;14.10;;;;;;;;;;10620749;27;20397;-89
2023/04/01 06:23:15;;;;;;;23.92;14.38;;;;;;;;;;10622137;27;20404;-90
2023/04/01 06:28:51;;;;;;;21.65;14.07;;;;;;;;;;10610571;27;20445;-90
2023/04/01 06:34:06;;;;;;;27.30;15.97;;;;;;;;;;10587209;27;20444;-89
2023/04/01 06:39:19;;;;;;;29.42;17.27;;;;;;;;;;10602788;27;20441;-89
2023/04/01 06:44:27;;;;;;;28.20;16.75;;;;;;;;;;10602357;27;20394;-90
2023/04/01 06:49:50;;;;;;;33.78;17.83;;;;;;;;;;10596899;27;20502;-89
2023/04/01 06:55:01;;;;;;;28.88;17.58;;;;;;;;;;10598925;27;20407;-90
2023/04/01 07:00:14;;;;;;;29.87;18.23;;;;;;;;;;10616567;27;20401;-89
2023/04/01 07:05:16;;;;;;;31.02;19.00;;;;;;;;;;10607616;27;20428;-88
2023/04/01 07:10:24;;;;;;;33.65;20.08;;;;;;;;;;10604428;28;20474;-89
2023/04/01 07:15:31;;;;;;;30.73;19.95;;;;;;;;;;10614381;28;20457;-88
2023/04/01 07:20:36;;;;;;;32.10;18.57;;;;;;;;;;10603264;28;20910;-89
2023/04/01 07:25:40;;;;;;;35.33;21.33;;;;;;;;;;10607589;28;20405;-88
2023/04/01 07:30:53;;;;;;;31.70;20.55;;;;;;;;;;10603208;28;20436;-87
2023/04/01 07:36:00;;;;;;;37.53;21.77;;;;;;;;;;10600616;28;20424;-89
2023/04/01 07:41:12;;;;;;;34.55;21.77;;;;;;;;;;10608168;28;20396;-88
2023/04/01 07:46:30;;;;;;;36.30;21.92;;;;;;;;;;10604489;28;20392;-89
2023/04/01 07:51:39;;;;;;;37.67;23.80;;;;;;;;;;10608357;27;20418;-88
2023/04/01 07:56:47;;;;;;;34.27;22.67;;;;;;;;;;10607360;27;20402;-89
2023/04/01 08:02:00;;;;;;;41.50;22.50;;;;;;;;;;10612004;27;20418;-88
2023/04/01 08:07:10;;;;;;;36.70;23.35;;;;;;;;;;10609316;27;20439;-89
2023/04/01 08:12:22;;;;;;;37.57;23.83;;;;;;;;;;10615055;27;20452;-89
2023/04/01 08:17:36;;;;;;;33.27;20.27;;;;;;;;;;10612196;27;20884;-88
2023/04/01 08:22:42;;;;;;;33.80;18.73;;;;;;;;;;10610616;27;20457;-89
2023/04/01 08:27:47;;;;;;;27.20;17.48;;;;;;;;;;10600212;27;20467;-89
2023/04/01 08:32:55;;;;;;;26.17;16.50;;;;;;;;;;10613282;27;20920;-88
2023/04/01 08:38:02;;;;;;;28.17;18.77;;;;;;;;;;10609035;27;20434;-89
2023/04/01 08:43:10;;;;;;;28.75;19.08;;;;;;;;;;10607358;27;20405;-88
2023/04/01 08:48:54;;;;;;;26.00;17.40;;;;;;;;;;10612161;27;20803;-88
2023/04/01 08:54:29;;;;;;;27.33;17.88;;;;;;;;;;10595410;27;20417;-88
2023/04/01 08:59:50;;;;;;;27.33;16.07;;;;;;;;;;10613637;27;20432;-88
2023/04/01 09:05:13;;;;;;;25.77;16.10;;;;;;;;;;10608673;27;20471;-88
2023/04/01 09:10:48;;;;;;;22.02;15.60;;;;;;;;;;10612080;27;20419;-89
2023/04/01 09:16:03;;;;;;;22.88;15.48;;;;;;;;;;10585014;27;20478;-89
2023/04/01 09:21:43;;;;;;;23.55;15.10;;;;;;;;;;10600497;27;20402;-90
2023/04/01 09:27:04;;;;;;;22.13;15.00;;;;;;;;;;10546775;27;20455;-89
2023/04/01 09:32:23;;;;;;;20.35;11.93;;;;;;;;;;10591959;27;20430;-89
2023/04/01 09:37:35;;;;;;;15.63;10.05;;;;;;;;;;10600184;27;20524;-90
2023/04/01 09:42:50;;;;;;;14.65;10.00;;;;;;;;;;10614548;27;20397;-89
2023/04/01 09:48:04;;;;;;;11.23;8.05;;;;;;;;;;10593665;27;20407;-90
2023/04/01 09:53:19;;;;;;;10.67;7.40;;;;;;;;;;10590816;27;20928;-88
2023/04/01 09:58:44;;;;;;;7.32;5.22;;;;;;;;;;10605825;27;20413;-88
2023/04/01 10:04:17;;;;;;;6.10;3.85;;;;;;;;;;10596957;27;20474;-88
2023/04/01 10:09:50;;;;;;;8.30;5.72;;;;;;;;;;10585673;27;21067;-89
2023/04/01 10:15:37;;;;;;;10.07;6.57;;;;;;;;;;10593316;27;20528;-89
2023/04/01 10:20:56;;;;;;;10.52;7.05;;;;;;;;;;10600040;27;20428;-89
2023/04/01 10:26:32;;;;;;;9.32;5.70;;;;;;;;;;10614691;27;20495;-89
2023/04/01 10:31:52;;;;;;;9.82;5.90;;;;;;;;;;10572820;28;20513;-90
2023/04/01 10:36:55;;;;;;;8.98;5.15;;;;;;;;;;10603746;27;20514;-90
2023/04/01 10:42:54;;;;;;;9.98;6.40;;;;;;;;;;10606009;27;20486;-90
2023/04/01 10:48:19;;;;;;;17.55;12.60;;;;;;;;;;10504265;27;20423;-90
2023/04/01 10:53:40;;;;;;;11.07;8.07;;;;;;;;;;10607422;27;20416;-90
2023/04/01 10:59:17;;;;;;;12.32;8.02;;;;;;;;;;10607852;27;20404;-91
2023/04/01 11:04:56;;;;;;;12.45;7.60;;;;;;;;;;10613901;27;20840;-89
2023/04/01 11:10:39;;;;;;;11.45;7.43;;;;;;;;;;10609430;27;20872;-87
2023/04/01 11:16:31;;;;;;;11.63;7.43;;;;;;;;;;10574179;28;20409;-84
2023/04/01 11:22:06;;;;;;;10.93;7.10;;;;;;;;;;10527814;27;20397;-87
2023/04/01 11:27:26;;;;;;;11.40;7.50;;;;;;;;;;10608671;27;20451;-86
2023/04/01 11:32:47;;;;;;;9.90;6.63;;;;;;;;;;10622319;27;20482;-86
2023/04/01 11:37:57;;;;;;;9.32;6.85;;;;;;;;;;10620956;27;20409;-86
2023/04/01 11:43:07;;;;;;;9.55;6.70;;;;;;;;;;10619647;27;20405;-86
2023/04/01 11:48:21;;;;;;;10.60;6.82;;;;;;;;;;10620046;27;20479;-86
2023/04/01 11:53:42;;;;;;;10.95;6.68;;;;;;;;;;10602098;27;20958;-87
2023/04/01 11:59:18;;;;;;;8.68;6.00;;;;;;;;;;10615767;27;21070;-86
2023/04/01 12:04:54;;;;;;;7.88;5.55;;;;;;;;;;10617020;27;20503;-86
2023/04/01 12:10:06;;;;;;;10.02;5.93;;;;;;;;;;10598756;27;20426;-86
2023/04/01 12:15:21;;;;;;;10.20;6.57;;;;;;;;;;10610915;27;20527;-86
2023/04/01 12:20:46;;;;;;;7.22;4.78;;;;;;;;;;10612257;27;21516;-85
2023/04/01 12:26:15;;;;;;;8.37;6.00;;;;;;;;;;10609110;27;20814;-87
2023/04/01 12:31:32;;;;;;;10.40;6.50;;;;;;;;;;10589088;27;20472;-85
2023/04/01 12:36:52;;;;;;;8.85;5.85;;;;;;;;;;10613864;27;20445;-87
2023/04/01 12:42:00;;;;;;;8.00;5.87;;;;;;;;;;10602801;27;20393;-87
2023/04/01 12:47:22;;;;;;;9.07;6.10;;;;;;;;;;10616267;27;20495;-87
2023/04/01 12:52:31;;;;;;;13.77;8.80;;;;;;;;;;10601313;27;20418;-87
2023/04/01 12:57:59;;;;;;;10.83;7.70;;;;;;;;;;10589857;27;20410;-86
2023/04/01 13:03:20;;;;;;;12.70;8.70;;;;;;;;;;10598984;27;20414;-87
2023/04/01 13:08:38;;;;;;;11.90;8.20;;;;;;;;;;10595791;27;20393;-87
2023/04/01 13:14:01;;;;;;;11.83;7.97;;;;;;;;;;10586786;27;20428;-87
2023/04/01 13:19:10;;;;;;;11.50;8.32;;;;;;;;;;10604776;27;20416;-87
2023/04/01 13:24:33;;;;;;;11.40;7.88;;;;;;;;;;10595153;27;20720;-88
2023/04/01 13:29:38;;;;;;;12.63;7.80;;;;;;;;;;10594731;27;20401;-86
2023/04/01 13:34:55;;;;;;;12.65;8.35;;;;;;;;;;10594923;27;20509;-87
2023/04/01 13:40:12;;;;;;;12.37;8.10;;;;;;;;;;10597918;27;20389;-87
2023/04/01 13:45:18;;;;;;;9.70;7.37;;;;;;;;;;10586274;27;20440;-86
2023/04/01 13:50:56;;;;;;;9.97;6.87;;;;;;;;;;10595551;27;20490;-86
2023/04/01 13:56:17;;;;;;;9.77;6.47;;;;;;;;;;10573304;27;20387;-86
2023/04/01 14:01:26;;;;;;;10.98;7.70;;;;;;;;;;10602434;27;20489;-87
2023/04/01 14:06:35;;;;;;;10.05;7.07;;;;;;;;;;10600334;27;20614;-86
2023/04/01 14:11:46;;;;;;;11.98;7.75;;;;;;;;;;10603562;27;20937;-87
2023/04/01 14:17:20;;;;;;;12.98;8.20;;;;;;;;;;10605185;27;20848;-85
2023/04/01 14:22:29;;;;;;;12.57;8.93;;;;;;;;;;10606419;27;20415;-87
2023/04/01 14:27:48;;;;;;;14.18;8.50;;;;;;;;;;10604160;27;20407;-85
2023/04/01 14:32:57;;;;;;;13.82;8.25;;;;;;;;;;10604614;27;20509;-85
2023/04/01 14:38:35;;;;;;;12.88;9.05;;;;;;;;;;10588472;27;20401;-86
2023/04/01 14:44:30;;;;;;;14.67;9.10;;;;;;;;;;10589846;27;20407;-81
2023/04/01 14:49:34;;;;;;;14.15;10.07;;;;;;;;;;10493473;27;20405;-85
2023/04/01 14:54:41;;;;;;;14.45;10.35;;;;;;;;;;10592512;27;20414;-88
2023/04/01 14:59:50;;;;;;;15.38;10.07;;;;;;;;;;10592966;27;20433;-88
2023/04/01 15:04:59;;;;;;;14.57;9.57;;;;;;;;;;10596285;27;20435;-91
2023/04/01 15:10:10;;;;;;;14.77;10.20;;;;;;;;;;10590206;27;20438;-87
2023/04/01 15:15:30;;;;;;;14.45;10.02;;;;;;;;;;10592999;28;20412;-87
2023/04/01 15:21:01;;;;;;;16.02;9.95;;;;;;;;;;10602878;28;20948;-86
2023/04/01 15:26:29;;;;;;;17.40;10.40;;;;;;;;;;10603406;28;20403;-82
2023/04/01 15:31:35;;;;;;;16.10;10.57;;;;;;;;;;10606623;28;20423;-83
2023/04/01 15:36:45;;;;;;;17.23;11.50;;;;;;;;;;10585649;28;20484;-88
2023/04/01 15:42:01;;;;;;;14.00;9.82;;;;;;;;;;10599344;28;20441;-89
2023/04/01 15:47:25;;;;;;;14.45;10.32;;;;;;;;;;10592303;28;20596;-87
2023/04/01 15:52:43;;;;;;;13.38;9.63;;;;;;;;;;10598832;28;20468;-81
2023/04/01 15:58:02;;;;;;;14.27;9.97;;;;;;;;;;10608361;28;20785;-94
2023/04/01 16:03:24;;;;;;;12.75;9.50;;;;;;;;;;10580849;28;20418;-85
2023/04/01 16:08:53;;;;;;;13.40;9.00;;;;;;;;;;10589157;27;20410;-87
2023/04/01 16:14:09;;;;;;;13.32;9.43;;;;;;;;;;10596266;27;20431;-86
2023/04/01 16:19:28;;;;;;;12.13;8.57;;;;;;;;;;10610249;27;20480;-86
2023/04/01 16:24:35;;;;;;;13.80;9.40;;;;;;;;;;10600720;27;20509;-89
2023/04/01 16:29:44;;;;;;;12.35;9.10;;;;;;;;;;10605314;27;20498;-88
2023/04/01 16:34:56;;;;;;;13.55;9.00;;;;;;;;;;10602201;27;21024;-89
2023/04/01 16:40:11;;;;;;;12.63;8.77;;;;;;;;;;10606931;27;20416;-89
2023/04/01 16:45:30;;;;;;;13.68;9.55;;;;;;;;;;10608269;27;20650;-88
2023/04/01 16:50:47;;;;;;;12.93;9.15;;;;;;;;;;10608768;27;20504;-88
2023/04/01 16:55:53;;;;;;;13.13;10.20;;;;;;;;;;10600101;27;20435;-89
2023/04/01 17:01:02;;;;;;;12.80;9.25;;;;;;;;;;10605500;27;20401;-88
2023/04/01 17:06:25;;;;;;;13.47;9.67;;;;;;;;;;10595143;27;20527;-86
2023/04/01 17:11:31;;;;;;;16.80;11.63;;;;;;;;;;10601506;27;20822;-89
2023/04/01 17:17:15;;;;;;;16.30;10.70;;;;;;;;;;10604116;27;20423;-88
2023/04/01 17:22:33;;;;;;;18.40;10.73;;;;;;;;;;10563974;27;20413;-88
2023/04/01 17:27:42;;;;;;;18.77;13.07;;;;;;;;;;10593733;27;20432;-88
2023/04/01 17:33:01;;;;;;;38.33;25.13;;;;;;;;;;10608646;27;20425;-87
2023/04/01 17:38:18;;;;;;;19.73;13.07;;;;;;;;;;10602901;27;20837;-88
2023/04/01 17:43:26;;;;;;;17.03;12.93;;;;;;;;;;10609230;27;20445;-88
2023/04/01 17:48:42;;;;;;;19.33;13.10;;;;;;;;;;10610069;27;20456;-89
2023/04/01 17:53:49;;;;;;;19.40;12.98;;;;;;;;;;10605302;27;20674;-88
2023/04/01 17:59:04;;;;;;;22.92;17.05;;;;;;;;;;10605638;27;20972;-89
2023/04/01 18:04:24;;;;;;;17.15;10.38;;;;;;;;;;10597300;27;20450;-88
2023/04/01 18:09:36;;;;;;;15.38;9.80;;;;;;;;;;10598142;27;20397;-89
2023/04/01 18:15:01;;;;;;;14.13;9.93;;;;;;;;;;10619020;27;20508;-88
2023/04/01 18:20:22;;;;;;;16.90;11.00;;;;;;;;;;10608920;27;20532;-88
2023/04/01 18:25:29;;;;;;;15.63;11.13;;;;;;;;;;10582047;27;20426;-88
2023/04/01 18:30:33;;;;;;;13.15;9.13;;;;;;;;;;10600033;27;20405;-88
2023/04/01 18:35:51;;;;;;;11.90;9.52;;;;;;;;;;10584989;27;20826;-88
2023/04/01 18:41:11;;;;;;;14.83;10.10;;;;;;;;;;10609409;27;20419;-89
2023/04/01 18:46:21;;;;;;;13.75;9.73;;;;;;;;;;10604932;27;20432;-89
2023/04/01 18:51:34;;;;;;;12.07;9.73;;;;;;;;;;10603372;27;20436;-89
2023/04/01 18:56:38;;;;;;;15.23;10.20;;;;;;;;;;10594980;27;20448;-89
2023/04/01 19:01:44;;;;;;;16.45;11.27;;;;;;;;;;10600416;27;20492;-88
2023/04/01 19:06:51;;;;;;;15.85;10.68;;;;;;;;;;10609223;27;20688;-88
2023/04/01 19:12:27;;;;;;;16.60;11.77;;;;;;;;;;10594028;27;20410;-89
2023/04/01 19:17:45;;;;;;;17.25;11.85;;;;;;;;;;10574003;28;20995;-87
2023/04/01 19:23:11;;;;;;;20.02;12.25;;;;;;;;;;10599719;28;20408;-89
2023/04/01 19:28:29;;;;;;;18.95;12.32;;;;;;;;;;10590004;28;20460;-89
2023/04/01 19:33:43;;;;;;;16.83;12.23;;;;;;;;;;10596948;28;20432;-88
2023/04/01 19:38:59;;;;;;;20.33;13.13;;;;;;;;;;10599789;28;20835;-88
2023/04/01 19:44:13;;;;;;;18.48;12.80;;;;;;;;;;10607413;27;20459;-88
2023/04/01 19:49:30;;;;;;;20.08;13.80;;;;;;;;;;10607553;27;20526;-89
2023/04/01 19:54:41;;;;;;;22.45;15.05;;;;;;;;;;10605474;27;20413;-87
2023/04/01 19:59:50;;;;;;;20.63;13.53;;;;;;;;;;10609180;27;20522;-88
2023/04/01 20:04:56;;;;;;;22.03;14.30;;;;;;;;;;10610443;27;20576;-88
2023/04/01 20:10:07;;;;;;;21.27;14.95;;;;;;;;;;10611950;27;20428;-86
2023/04/01 20:15:24;;;;;;;23.30;14.63;;;;;;;;;;10607799;27;20452;-88
2023/04/01 20:20:29;;;;;;;23.70;14.70;;;;;;;;;;10612861;27;20403;-87
2023/04/01 20:25:40;;;;;;;24.33;14.88;;;;;;;;;;10605052;27;20412;-89
2023/04/01 20:31:00;;;;;;;25.67;15.93;;;;;;;;;;10614816;27;20430;-91
2023/04/01 20:36:14;;;;;;;23.48;14.00;;;;;;;;;;10606240;27;20444;-91
2023/04/01 20:41:27;;;;;;;20.45;13.85;;;;;;;;;;10620872;27;20408;-91
2023/04/01 20:46:35;;;;;;;22.37;14.57;;;;;;;;;;10612559;27;20390;-91
2023/04/01 20:51:39;;;;;;;24.57;14.67;;;;;;;;;;10614097;27;20909;-90
2023/04/01 20:56:51;;;;;;;21.60;14.33;;;;;;;;;;10595973;27;20982;-91
2023/04/01 21:02:08;;;;;;;21.98;14.57;;;;;;;;;;10619284;27;20409;-90
2023/04/01 21:07:22;;;;;;;23.13;14.05;;;;;;;;;;10618973;27;20409;-91
2023/04/01 21:12:37;;;;;;;23.30;14.25;;;;;;;;;;10611866;27;20447;-91
2023/04/01 21:17:51;;;;;;;23.50;15.03;;;;;;;;;;10610254;27;20402;-91
2023/04/01 21:23:04;;;;;;;22.47;14.10;;;;;;;;;;10618005;27;20444;-90
2023/04/01 21:28:33;;;;;;;24.08;15.05;;;;;;;;;;10608128;27;20458;-90
2023/04/01 21:33:50;;;;;;;23.98;14.98;;;;;;;;;;10587360;27;20448;-91
2023/04/01 21:39:07;;;;;;;24.48;14.15;;;;;;;;;;10603407;27;20453;-90
2023/04/01 21:44:31;;;;;;;23.25;15.02;;;;;;;;;;10576000;27;20414;-91
2023/04/01 21:50:05;;;;;;;22.60;14.10;;;;;;;;;;10611430;27;21018;-90
2023/04/01 21:55:40;;;;;;;21.92;14.25;;;;;;;;;;10616177;27;20410;-92
2023/04/01 22:00:54;;;;;;;21.17;13.77;;;;;;;;;;10594285;27;20494;-92
2023/04/01 22:06:08;;;;;;;18.33;12.07;;;;;;;;;;10605121;27;20414;-91
2023/04/01 22:11:21;;;;;;;18.77;12.37;;;;;;;;;;10614042;27;20389;-90
2023/04/01 22:16:34;;;;;;;16.48;11.05;;;;;;;;;;10612503;27;20424;-91
2023/04/01 22:21:44;;;;;;;17.00;10.05;;;;;;;;;;10597313;27;20401;-92
2023/04/01 22:26:54;;;;;;;14.88;10.40;;;;;;;;;;10611411;27;20409;-91
2023/04/01 22:32:03;;;;;;;15.00;9.67;;;;;;;;;;10621117;27;20397;-89
2023/04/01 22:37:17;;;;;;;14.55;9.43;;;;;;;;;;10612331;27;20425;-91
2023/04/01 22:42:33;;;;;;;16.20;9.77;;;;;;;;;;10623257;27;20420;-91
2023/04/01 22:47:47;;;;;;;13.85;9.75;;;;;;;;;;10600937;27;20423;-91
2023/04/01 22:52:56;;;;;;;13.80;10.10;;;;;;;;;;10603788;27;20505;-90
2023/04/01 22:58:01;;;;;;;14.80;10.10;;;;;;;;;;10614313;27;20398;-92
2023/04/01 23:03:14;;;;;;;13.17;10.17;;;;;;;;;;10629381;27;20401;-92
2023/04/01 23:08:51;;;;;;;15.32;10.77;;;;;;;;;;10633174;27;20417;-91
2023/04/01 23:13:58;;;;;;;14.93;10.07;;;;;;;;;;10610790;27;20468;-92
2023/04/01 23:19:10;;;;;;;16.00;9.75;;;;;;;;;;10615263;28;20405;-92
2023/04/01 23:24:20;;;;;;;15.67;11.17;;;;;;;;;;10597985;28;20391;-91
2023/04/01 23:29:23;;;;;;;15.77;11.47;;;;;;;;;;10601302;28;20433;-92
2023/04/01 23:34:29;;;;;;;17.75;11.95;;;;;;;;;;10613524;28;20483;-92
2023/04/01 23:39:35;;;;;;;18.38;12.60;;;;;;;;;;10590512;28;20402;-92
2023/04/01 23:44:37;;;;;;;19.45;13.32;;;;;;;;;;10621355;28;20407;-91
2023/04/01 23:49:47;;;;;;;16.98;11.80;;;;;;;;;;10607899;28;20399;-92
2023/04/01 23:54:53;;;;;;;16.60;12.13;;;;;;;;;;10604268;28;20444;-92
